sensor_id;sensor_type;location;lat;lon;timestamp;temperature;humidity
64987;DHT22;51532;52.108;9.360;2022-11-15T00:03:26;8.40;99.90
64987;DHT22;51532;52.108;9.360;2022-11-15T00:06:31;8.40;99.90
64987;DHT22;51532;52.108;9.360;2022-11-15T01:08:15;9.50;99.90
64987;DHT22;51532;52.108;9.360;2022-11-15T01:17:30;9.60;99.90
64987;DHT22;51532;52.108;9.360;2022-11-15T01:20:39;9.70;99.90
64987;DHT22;51532;52.108;9.360;2022-11-15T01:36:09;9.60;99.90
64987;DHT22;51532;52.108;9.360;2022-11-15T01:48:34;9.80;99.90
64987;DHT22;51532;52.108;9.360;2022-11-15T01:51:39;9.90;99.90
64987;DHT22;51532;52.108;9.360;2022-11-15T01:54:44;9.80;99.90
64987;DHT22;51532;52.108;9.360;2022-11-15T01:57:53;10.00;99.90
64987;DHT22;51532;52.108;9.360;2022-11-15T02:04:11;10.10;99.90
64987;DHT22;51532;52.108;9.360;2022-11-15T02:07:19;10.10;99.90
64987;DHT22;51532;52.108;9.360;2022-11-15T02:34:04;9.70;99.90
64987;DHT22;51532;52.108;9.360;2022-11-15T02:40:45;9.70;99.90
64987;DHT22;51532;52.108;9.360;2022-11-15T02:44:14;9.70;99.90
64987;DHT22;51532;52.108;9.360;2022-11-15T02:47:21;9.60;99.90
64987;DHT22;51532;52.108;9.360;2022-11-15T02:50:29;9.70;99.90
64987;DHT22;51532;52.108;9.360;2022-11-15T03:03:26;10.20;99.90
64987;DHT22;51532;52.108;9.360;2022-11-15T03:07:00;10.30;99.90
64987;DHT22;51532;52.108;9.360;2022-11-15T03:10:14;10.40;99.90
64987;DHT22;51532;52.108;9.360;2022-11-15T03:13:26;10.40;99.90
64987;DHT22;51532;52.108;9.360;2022-11-15T03:16:38;10.40;99.90
64987;DHT22;51532;52.108;9.360;2022-11-15T03:19:52;10.40;99.90
64987;DHT22;51532;52.108;9.360;2022-11-15T03:23:15;10.40;99.90
64987;DHT22;51532;52.108;9.360;2022-11-15T03:26:21;10.40;99.90
64987;DHT22;51532;52.108;9.360;2022-11-15T03:29:35;10.40;99.90
64987;DHT22;51532;52.108;9.360;2022-11-15T03:32:45;10.40;99.90
64987;DHT22;51532;52.108;9.360;2022-11-15T03:35:52;10.40;99.90
64987;DHT22;51532;52.108;9.360;2022-11-15T03:39:01;10.60;99.90
64987;DHT22;51532;52.108;9.360;2022-11-15T03:42:28;10.60;99.90
64987;DHT22;51532;52.108;9.360;2022-11-15T03:49:36;10.20;99.90
64987;DHT22;51532;52.108;9.360;2022-11-15T03:52:45;10.10;99.90
64987;DHT22;51532;52.108;9.360;2022-11-15T04:14:19;9.50;99.90
64987;DHT22;51532;52.108;9.360;2022-11-15T04:20:30;9.50;99.90
64987;DHT22;51532;52.108;9.360;2022-11-15T04:42:54;9.60;99.90
64987;DHT22;51532;52.108;9.360;2022-11-15T04:52:16;9.70;99.90
64987;DHT22;51532;52.108;9.360;2022-11-15T05:07:40;10.10;99.90
64987;DHT22;51532;52.108;9.360;2022-11-15T05:13:49;10.20;99.90
64987;DHT22;51532;52.108;9.360;2022-11-15T05:19:59;10.30;99.90
64987;DHT22;51532;52.108;9.360;2022-11-15T05:26:09;10.40;99.90
64987;DHT22;51532;52.108;9.360;2022-11-15T05:35:38;10.40;99.90
64987;DHT22;51532;52.108;9.360;2022-11-15T05:38:48;10.40;99.90
64987;DHT22;51532;52.108;9.360;2022-11-15T05:41:56;10.50;99.90
64987;DHT22;51532;52.108;9.360;2022-11-15T05:45:03;10.50;99.90
64987;DHT22;51532;52.108;9.360;2022-11-15T05:48:09;10.50;99.90
64987;DHT22;51532;52.108;9.360;2022-11-15T05:51:15;10.60;99.90
64987;DHT22;51532;52.108;9.360;2022-11-15T06:00:30;10.60;99.90
64987;DHT22;51532;52.108;9.360;2022-11-15T06:12:57;10.10;99.90
64987;DHT22;51532;52.108;9.360;2022-11-15T06:19:07;9.80;99.90
64987;DHT22;51532;52.108;9.360;2022-11-15T06:40:42;9.70;99.90
64987;DHT22;51532;52.108;9.360;2022-11-15T06:53:02;9.70;99.90
64987;DHT22;51532;52.108;9.360;2022-11-15T07:08:28;9.60;99.90
64987;DHT22;51532;52.108;9.360;2022-11-15T07:11:33;9.60;99.90
64987;DHT22;51532;52.108;9.360;2022-11-15T07:23:52;9.60;99.90
64987;DHT22;51532;52.108;9.360;2022-11-15T07:26:57;9.70;99.90
64987;DHT22;51532;52.108;9.360;2022-11-15T07:33:06;9.80;99.90
64987;DHT22;51532;52.108;9.360;2022-11-15T07:45:45;10.30;99.90
64987;DHT22;51532;52.108;9.360;2022-11-15T07:58:06;11.00;99.90
64987;DHT22;51532;52.108;9.360;2022-11-15T08:10:27;11.00;99.90
64987;DHT22;51532;52.108;9.360;2022-11-15T08:28:57;11.50;99.90
64987;DHT22;51532;52.108;9.360;2022-11-15T08:32:01;11.50;99.90
64987;DHT22;51532;52.108;9.360;2022-11-15T08:38:11;11.60;99.90
64987;DHT22;51532;52.108;9.360;2022-11-15T08:41:29;11.70;99.90
64987;DHT22;51532;52.108;9.360;2022-11-15T09:09:15;11.80;99.90
64987;DHT22;51532;52.108;9.360;2022-11-15T09:36:59;12.30;99.90
64987;DHT22;51532;52.108;9.360;2022-11-15T09:43:46;12.30;99.90
64987;DHT22;51532;52.108;9.360;2022-11-15T09:50:09;12.30;99.90
64987;DHT22;51532;52.108;9.360;2022-11-15T09:55:58;12.60;99.90
64987;DHT22;51532;52.108;9.360;2022-11-15T10:02:14;12.50;99.90
64987;DHT22;51532;52.108;9.360;2022-11-15T10:05:03;12.50;99.90
64987;DHT22;51532;52.108;9.360;2022-11-15T10:08:17;12.60;99.90
64987;DHT22;51532;52.108;9.360;2022-11-15T10:11:10;12.60;99.90
64987;DHT22;51532;52.108;9.360;2022-11-15T10:14:21;12.60;99.90
64987;DHT22;51532;52.108;9.360;2022-11-15T10:23:01;12.70;99.90
64987;DHT22;51532;52.108;9.360;2022-11-15T10:26:00;12.70;99.90
64987;DHT22;51532;52.108;9.360;2022-11-15T10:31:39;12.80;99.90
64987;DHT22;51532;52.108;9.360;2022-11-15T10:51:28;13.00;99.90
64987;DHT22;51532;52.108;9.360;2022-11-15T10:54:39;13.10;99.90
64987;DHT22;51532;52.108;9.360;2022-11-15T10:57:29;13.10;99.90
64987;DHT22;51532;52.108;9.360;2022-11-15T11:03:20;13.00;99.90
64987;DHT22;51532;52.108;9.360;2022-11-15T11:09:04;13.00;99.90
64987;DHT22;51532;52.108;9.360;2022-11-15T11:11:51;13.00;99.90
64987;DHT22;51532;52.108;9.360;2022-11-15T11:14:38;13.00;99.90
64987;DHT22;51532;52.108;9.360;2022-11-15T11:17:42;13.00;99.90
64987;DHT22;51532;52.108;9.360;2022-11-15T11:20:49;13.00;99.90
64987;DHT22;51532;52.108;9.360;2022-11-15T11:24:10;13.00;99.90
64987;DHT22;51532;52.108;9.360;2022-11-15T11:27:25;13.20;99.90
64987;DHT22;51532;52.108;9.360;2022-11-15T11:36:24;13.20;99.90
64987;DHT22;51532;52.108;9.360;2022-11-15T11:42:30;13.20;99.90
64987;DHT22;51532;52.108;9.360;2022-11-15T11:49:07;13.20;99.90
64987;DHT22;51532;52.108;9.360;2022-11-15T11:52:05;13.30;99.90
64987;DHT22;51532;52.108;9.360;2022-11-15T11:57:45;13.40;99.90
64987;DHT22;51532;52.108;9.360;2022-11-15T12:00:35;13.40;99.90
64987;DHT22;51532;52.108;9.360;2022-11-15T12:06:35;13.40;99.90
64987;DHT22;51532;52.108;9.360;2022-11-15T12:09:43;13.40;99.90
64987;DHT22;51532;52.108;9.360;2022-11-15T12:12:47;13.40;99.90
64987;DHT22;51532;52.108;9.360;2022-11-15T12:15:48;13.40;99.90
64987;DHT22;51532;52.108;9.360;2022-11-15T12:18:36;13.40;99.90
64987;DHT22;51532;52.108;9.360;2022-11-15T12:21:45;13.50;99.90
64987;DHT22;51532;52.108;9.360;2022-11-15T12:30:44;13.50;99.90
64987;DHT22;51532;52.108;9.360;2022-11-15T12:33:46;13.40;99.90
64987;DHT22;51532;52.108;9.360;2022-11-15T12:36:39;13.40;99.90
64987;DHT22;51532;52.108;9.360;2022-11-15T12:43:02;13.50;99.90
64987;DHT22;51532;52.108;9.360;2022-11-15T12:51:23;13.40;99.90
64987;DHT22;51532;52.108;9.360;2022-11-15T13:03:20;13.30;99.90
64987;DHT22;51532;52.108;9.360;2022-11-15T13:06:08;13.30;99.90
64987;DHT22;51532;52.108;9.360;2022-11-15T13:11:48;13.40;99.90
64987;DHT22;51532;52.108;9.360;2022-11-15T13:17:26;13.40;99.90
64987;DHT22;51532;52.108;9.360;2022-11-15T13:23:15;13.60;99.90
64987;DHT22;51532;52.108;9.360;2022-11-15T13:28:49;13.90;99.90
64987;DHT22;51532;52.108;9.360;2022-11-15T13:31:41;14.00;99.90
64987;DHT22;51532;52.108;9.360;2022-11-15T13:34:31;14.00;99.90
64987;DHT22;51532;52.108;9.360;2022-11-15T13:40:25;14.10;99.90
64987;DHT22;51532;52.108;9.360;2022-11-15T13:43:35;14.10;99.90
64987;DHT22;51532;52.108;9.360;2022-11-15T13:46:29;14.00;99.90
64987;DHT22;51532;52.108;9.360;2022-11-15T13:52:05;13.80;99.90
64987;DHT22;51532;52.108;9.360;2022-11-15T13:54:59;13.80;99.90
64987;DHT22;51532;52.108;9.360;2022-11-15T13:57:51;13.80;99.90
64987;DHT22;51532;52.108;9.360;2022-11-15T14:03:37;13.90;99.90
64987;DHT22;51532;52.108;9.360;2022-11-15T14:06:27;13.90;99.90
64987;DHT22;51532;52.108;9.360;2022-11-15T14:12:00;13.90;99.90
64987;DHT22;51532;52.108;9.360;2022-11-15T14:17:37;13.80;99.90
64987;DHT22;51532;52.108;9.360;2022-11-15T14:20:26;13.80;99.90
64987;DHT22;51532;52.108;9.360;2022-11-15T14:23:24;13.70;99.90
64987;DHT22;51532;52.108;9.360;2022-11-15T14:29:33;13.70;99.90
64987;DHT22;51532;52.108;9.360;2022-11-15T14:32:21;13.60;99.90
64987;DHT22;51532;52.108;9.360;2022-11-15T14:35:15;13.60;99.90
64987;DHT22;51532;52.108;9.360;2022-11-15T14:38:01;13.50;99.90
64987;DHT22;51532;52.108;9.360;2022-11-15T15:00:09;13.20;99.90
64987;DHT22;51532;52.108;9.360;2022-11-15T15:11:22;13.10;99.90
64987;DHT22;51532;52.108;9.360;2022-11-15T15:14:08;13.00;99.90
64987;DHT22;51532;52.108;9.360;2022-11-15T15:19:39;13.10;99.90
64987;DHT22;51532;52.108;9.360;2022-11-15T15:22:28;13.10;99.90
64987;DHT22;51532;52.108;9.360;2022-11-15T15:39:11;12.90;99.90
64987;DHT22;51532;52.108;9.360;2022-11-15T15:53:02;12.90;99.90
64987;DHT22;51532;52.108;9.360;2022-11-15T16:12:44;12.70;99.90
64987;DHT22;51532;52.108;9.360;2022-11-15T16:15:31;12.60;99.90
64987;DHT22;51532;52.108;9.360;2022-11-15T16:18:17;12.50;99.90
64987;DHT22;51532;52.108;9.360;2022-11-15T16:26:35;12.30;99.90
64987;DHT22;51532;52.108;9.360;2022-11-15T16:34:52;12.20;99.90
64987;DHT22;51532;52.108;9.360;2022-11-15T16:37:38;12.10;99.90
64987;DHT22;51532;52.108;9.360;2022-11-15T16:40:33;12.10;99.90
64987;DHT22;51532;52.108;9.360;2022-11-15T16:46:31;12.00;99.90
64987;DHT22;51532;52.108;9.360;2022-11-15T16:49:18;11.90;99.90
64987;DHT22;51532;52.108;9.360;2022-11-15T17:00:22;11.70;99.90
64987;DHT22;51532;52.108;9.360;2022-11-15T17:03:07;11.70;99.90
64987;DHT22;51532;52.108;9.360;2022-11-15T17:05:57;11.80;99.90
64987;DHT22;51532;52.108;9.360;2022-11-15T17:08:44;11.70;99.90
64987;DHT22;51532;52.108;9.360;2022-11-15T17:14:16;11.70;99.90
64987;DHT22;51532;52.108;9.360;2022-11-15T17:17:01;11.70;99.90
64987;DHT22;51532;52.108;9.360;2022-11-15T17:25:19;11.70;99.90
64987;DHT22;51532;52.108;9.360;2022-11-15T17:33:37;11.70;99.90
64987;DHT22;51532;52.108;9.360;2022-11-15T17:47:26;11.40;99.90
64987;DHT22;51532;52.108;9.360;2022-11-15T17:52:58;11.30;99.90
64987;DHT22;51532;52.108;9.360;2022-11-15T17:58:30;11.20;99.90
64987;DHT22;51532;52.108;9.360;2022-11-15T18:04:06;11.60;99.90
64987;DHT22;51532;52.108;9.360;2022-11-15T18:15:12;11.40;99.90
64987;DHT22;51532;52.108;9.360;2022-11-15T18:23:32;11.30;99.90
64987;DHT22;51532;52.108;9.360;2022-11-15T18:26:19;11.30;99.90
64987;DHT22;51532;52.108;9.360;2022-11-15T18:43:00;11.50;99.90
64987;DHT22;51532;52.108;9.360;2022-11-15T18:48:32;11.70;99.90
64987;DHT22;51532;52.108;9.360;2022-11-15T18:51:22;11.60;99.90
64987;DHT22;51532;52.108;9.360;2022-11-15T18:54:11;11.70;99.90
64987;DHT22;51532;52.108;9.360;2022-11-15T18:59:42;11.50;99.90
64987;DHT22;51532;52.108;9.360;2022-11-15T19:19:13;11.40;99.90
64987;DHT22;51532;52.108;9.360;2022-11-15T19:36:14;11.50;99.90
64987;DHT22;51532;52.108;9.360;2022-11-15T19:39:02;11.50;99.90
64987;DHT22;51532;52.108;9.360;2022-11-15T19:52:57;11.60;99.90
64987;DHT22;51532;52.108;9.360;2022-11-15T19:56:02;11.60;99.90
64987;DHT22;51532;52.108;9.360;2022-11-15T19:58:52;11.50;99.90
64987;DHT22;51532;52.108;9.360;2022-11-15T20:43:12;11.70;99.90
64987;DHT22;51532;52.108;9.360;2022-11-15T20:48:44;11.80;99.90
64987;DHT22;51532;52.108;9.360;2022-11-15T21:10:52;11.90;99.90
64987;DHT22;51532;52.108;9.360;2022-11-15T21:58:20;11.90;99.90
64987;DHT22;51532;52.108;9.360;2022-11-15T22:04:12;11.90;99.90
64987;DHT22;51532;52.108;9.360;2022-11-15T22:06:57;11.90;99.90
64987;DHT22;51532;52.108;9.360;2022-11-15T22:23:44;12.00;99.90
64987;DHT22;51532;52.108;9.360;2022-11-15T22:43:06;12.00;99.90
64987;DHT22;51532;52.108;9.360;2022-11-15T23:13:50;12.00;99.90
64987;DHT22;51532;52.108;9.360;2022-11-15T23:28:04;12.00;99.90
64987;DHT22;51532;52.108;9.360;2022-11-15T23:30:49;11.90;99.90
64987;DHT22;51532;52.108;9.360;2022-11-15T23:39:28;11.90;99.90
64987;DHT22;51532;52.108;9.360;2022-11-15T23:56:16;11.90;99.90
